This is the latest recevied weather packets stored in our database for station/object W1BKW. If no packets are shown the sender has not sent any weather packets the latest 10 day(s).
| Time | Temp. | Humidity | Pressure | Rain* | Wind** | Luminosity | Snow |
|---|---|---|---|---|---|---|---|
| 1777847160 | 9.44° C | 50% | 1003.2 hPa | 0 mm | - | 105 W/m² | - |
| 1777846259 | 8.89° C | 48% | 1003.3 hPa | 0 mm | - | 28 W/m² | - |
| 1777845355 | 10° C | 47% | 1003.3 hPa | 0 mm | - | 172 W/m² | - |
| 1777844452 | 8.89° C | 49% | 1003.1 hPa | 0 mm | - | 58 W/m² | - |
| 1777843550 | 9.44° C | 48% | 1002.8 hPa | 0 mm | - | 90 W/m² | - |
| 1777842645 | 9.44° C | 48% | 1003 hPa | 0 mm | - | 73 W/m² | - |
| 1777841741 | 9.44° C | 51% | 1002.8 hPa | 0 mm | - | 68 W/m² | - |
| 1777840837 | 10° C | 48% | 1002.7 hPa | 0 mm | - | 63 W/m² | - |
| 1777839935 | 10° C | 47% | 1002.4 hPa | 0 mm | - | 70 W/m² | - |
| 1777839034 | 10° C | 46% | 1002.5 hPa | 0 mm | - | 118 W/m² | - |
| 1777838130 | 10° C | 49% | 1002.4 hPa | 0 mm | - | 73 W/m² | - |
| 1777837229 | 10° C | 54% | 1002.7 hPa | 0 mm | - | 58 W/m² | - |
| 1777836329 | 10° C | 52% | 1002.6 hPa | 0 mm | - | 97 W/m² | - |
| 1777835425 | 10° C | 53% | 1002.8 hPa | 0 mm | - | 112 W/m² | - |
| 1777834521 | 9.44° C | 55% | 1002.9 hPa | 0 mm | - | 186 W/m² | - |
| 1777833619 | 10° C | 59% | 1002.9 hPa | 0 mm | - | 230 W/m² | - |
| 1777832717 | 9.44° C | 59% | 1002.8 hPa | 0 mm | - | 219 W/m² | - |
| 1777831814 | 9.44° C | 61% | 1003 hPa | 0 mm | - | 163 W/m² | - |
| 1777830912 | 9.44° C | 59% | 1002.9 hPa | 0 mm | - | 224 W/m² | - |
| 1777830008 | 8.89° C | 60% | 1002.9 hPa | 0 mm | - | 170 W/m² | - |
| 1777829103 | 8.89° C | 61% | 1003 hPa | 0 mm | - | 161 W/m² | - |
| 1777828200 | 8.33° C | 65% | 1003.1 hPa | 0 mm | - | 202 W/m² | - |
| 1777827297 | 8.89° C | 65% | 1003.1 hPa | 0 mm | - | 233 W/m² | - |
| 1777826392 | 8.33° C | 67% | 1003.3 hPa | 0 mm | - | 212 W/m² | - |
| 1777825490 | 7.78° C | 72% | 1003.6 hPa | 0 mm | - | 147 W/m² | - |
* Rain latest hour (hover to see other rain measurements)
** Current wind speed in m/s (hover to see current wind gust speed)